Time;durP1;ratioP1;P1;durP2;ratioP2;P2;SDS_P1;SDS_P2;PMS_P1;PMS_P2;Temp;Humidity;BMP_temperature;BMP_pressure;BME280_temperature;BME280_humidity;BME280_pressure;Samples;Min_cycle;Max_cycle;Signal;HPM_P1;HPM_P2
2023/01/28 00:01:51;;;;;;;0.10;0.10;;;;;;;0.61;91.49;101612.59;5012494;28;20193;-73
2023/01/28 00:04:17;;;;;;;0.00;0.00;;;;;;;0.55;91.73;101615.06;5012705;28;20199;-75
2023/01/28 00:06:43;;;;;;;0.00;0.00;;;;;;;0.67;92.19;101617.91;5012866;28;20565;-72
2023/01/28 00:09:08;;;;;;;0.00;0.00;;;;;;;0.73;92.08;101613.53;5012885;28;20624;-74
2023/01/28 00:11:33;;;;;;;0.00;0.00;;;;;;;0.76;91.98;101619.31;5012797;28;20180;-72
2023/01/28 00:13:59;;;;;;;0.77;0.77;;;;;;;0.68;91.98;101611.47;5012513;28;20264;-78
2023/01/28 00:16:29;;;;;;;0.70;0.70;;;;;;;0.54;92.62;101621.50;5012809;28;20177;-73
2023/01/28 00:18:54;;;;;;;0.00;0.00;;;;;;;0.57;93.07;101614.84;5012755;28;20267;-74
2023/01/28 00:21:19;;;;;;;0.00;0.00;;;;;;;0.68;93.22;101614.16;5012403;28;20259;-79
2023/01/28 00:23:53;;;;;;;0.00;0.00;;;;;;;0.55;93.19;101614.25;5012856;28;20602;-71
2023/01/28 00:26:19;;;;;;;2.63;2.53;;;;;;;0.57;92.90;101615.69;5012780;28;20247;-76
2023/01/28 00:28:45;;;;;;;0.00;0.00;;;;;;;0.65;93.33;101613.78;5013008;28;20176;-72
2023/01/28 00:31:15;;;;;;;0.00;0.00;;;;;;;0.84;93.51;101618.19;5012416;28;20652;-75
2023/01/28 00:33:41;;;;;;;0.00;0.00;;;;;;;1.00;93.66;101616.84;5012651;28;20173;-72
2023/01/28 00:36:07;;;;;;;0.00;0.00;;;;;;;1.04;93.56;101623.44;5012424;28;20671;-72
2023/01/28 00:38:33;;;;;;;0.00;0.00;;;;;;;1.07;93.15;101620.31;5012784;28;20183;-72
2023/01/28 00:41:08;;;;;;;0.00;0.00;;;;;;;1.19;92.94;101615.88;5012275;28;20417;-74
2023/01/28 00:43:34;;;;;;;0.00;0.00;;;;;;;1.27;93.07;101622.81;5012279;28;20211;-74
2023/01/28 00:45:59;;;;;;;0.00;0.00;;;;;;;1.03;92.07;101625.31;5012260;28;20184;-72
2023/01/28 00:48:25;;;;;;;0.00;0.00;;;;;;;0.98;92.56;101624.31;5012221;28;20251;-71
2023/01/28 00:50:50;;;;;;;0.00;0.00;;;;;;;0.70;92.24;101614.78;5012338;28;20176;-72
2023/01/28 00:53:16;;;;;;;0.00;0.00;;;;;;;0.57;93.08;101613.00;5012208;28;20254;-75
2023/01/28 00:55:41;;;;;;;0.00;0.00;;;;;;;0.47;93.36;101620.72;5012152;28;20180;-71
2023/01/28 00:58:06;;;;;;;0.10;0.10;;;;;;;0.39;93.08;101618.28;5012212;28;20699;-72
2023/01/28 01:00:31;;;;;;;0.00;0.00;;;;;;;0.38;93.76;101613.94;5012105;28;20199;-74
2023/01/28 01:02:57;;;;;;;0.00;0.00;;;;;;;0.39;93.42;101615.59;5011950;28;20223;-72
2023/01/28 01:05:22;;;;;;;0.00;0.00;;;;;;;0.44;93.51;101623.84;5011671;28;20176;-72
2023/01/28 01:07:47;;;;;;;0.00;0.00;;;;;;;0.47;93.86;101628.78;5011494;28;20176;-75
2023/01/28 01:10:15;;;;;;;0.00;0.00;;;;;;;0.43;94.15;101638.31;5011413;28;20180;-75
2023/01/28 01:12:41;;;;;;;0.00;0.00;;;;;;;0.36;93.99;101629.47;5011318;28;20216;-72
2023/01/28 01:15:09;;;;;;;0.00;0.00;;;;;;;0.42;93.99;101628.59;5011643;28;20268;-74
2023/01/28 01:17:42;;;;;;;0.00;0.00;;;;;;;0.44;94.40;101621.16;5011413;28;20184;-71
2023/01/28 01:20:20;;;;;;;0.00;0.00;;;;;;;0.57;94.25;101623.75;5011088;28;20423;-72
2023/01/28 01:22:45;;;;;;;0.00;0.00;;;;;;;0.59;93.79;101623.56;5011168;28;20204;-75
2023/01/28 01:25:12;;;;;;;0.00;0.00;;;;;;;0.62;93.58;101627.66;5010723;28;20544;-78
2023/01/28 01:27:38;;;;;;;0.13;0.13;;;;;;;0.57;94.08;101622.91;5011001;28;20172;-79
2023/01/28 01:30:04;;;;;;;1.60;1.60;;;;;;;0.46;93.64;101624.44;5011018;28;20239;-80
2023/01/28 01:32:30;;;;;;;0.00;0.00;;;;;;;0.38;93.16;101613.13;5011251;28;20227;-83
2023/01/28 01:34:56;;;;;;;0.00;0.00;;;;;;;0.46;93.40;101620.94;5011077;28;20648;-86
2023/01/28 01:37:21;;;;;;;0.00;0.00;;;;;;;0.48;92.63;101618.84;5011056;28;20430;-86
2023/01/28 01:39:47;;;;;;;0.00;0.00;;;;;;;0.51;92.38;101624.63;5011061;28;20537;-87
2023/01/28 01:42:13;;;;;;;0.00;0.00;;;;;;;0.54;92.33;101617.97;5010844;28;20231;-79
2023/01/28 01:44:56;;;;;;;0.00;0.00;;;;;;;0.47;93.10;101623.41;5011112;28;20196;-78
2023/01/28 01:47:27;;;;;;;0.00;0.00;;;;;;;0.43;92.42;101624.03;5010909;28;20264;-83
2023/01/28 01:49:53;;;;;;;0.00;0.00;;;;;;;0.50;92.70;101622.97;5011432;28;20385;-84
2023/01/28 01:52:24;;;;;;;0.00;0.00;;;;;;;0.56;92.74;101622.09;5011413;28;20184;-84
2023/01/28 01:54:53;;;;;;;0.00;0.00;;;;;;;0.45;92.40;101627.38;5011321;28;20201;-84
2023/01/28 01:57:23;;;;;;;0.00;0.00;;;;;;;0.41;92.23;101632.31;5011436;28;20704;-85
2023/01/28 01:59:48;;;;;;;0.00;0.00;;;;;;;0.29;92.20;101626.81;5011254;28;20473;-85
2023/01/28 02:02:14;;;;;;;0.00;0.00;;;;;;;0.31;92.30;101631.16;5010950;28;20208;-85
2023/01/28 02:04:43;;;;;;;0.00;0.00;;;;;;;0.35;92.08;101630.50;5011038;28;20173;-83
2023/01/28 02:07:11;;;;;;;0.00;0.00;;;;;;;0.37;92.25;101632.97;5011133;28;20172;-83
2023/01/28 02:09:37;;;;;;;0.00;0.00;;;;;;;0.38;91.60;101632.75;5011080;28;20177;-86
2023/01/28 02:12:10;;;;;;;0.00;0.00;;;;;;;0.38;91.55;101632.75;5010860;28;20522;-83
2023/01/28 02:14:40;;;;;;;0.00;0.00;;;;;;;0.39;90.87;101641.63;5010990;28;20180;-86
2023/01/28 02:17:06;;;;;;;0.00;0.00;;;;;;;0.34;91.41;101638.78;5011121;28;20157;-83
2023/01/28 02:19:44;;;;;;;0.00;0.00;;;;;;;0.29;91.38;101634.88;5011079;28;20186;-86
2023/01/28 02:22:31;;;;;;;0.00;0.00;;;;;;;0.26;91.25;101640.66;5010540;28;20207;-81
2023/01/28 02:25:20;;;;;;;0.00;0.00;;;;;;;0.33;91.12;101645.19;5011212;28;20168;-84
2023/01/28 02:28:08;;;;;;;0.00;0.00;;;;;;;0.28;90.76;101632.38;5010817;28;20890;-72
2023/01/28 02:30:38;;;;;;;0.00;0.00;;;;;;;0.32;91.27;101636.31;5010776;28;20470;-72
2023/01/28 02:33:26;;;;;;;0.00;0.00;;;;;;;0.27;92.11;101638.81;5010742;28;20427;-72
2023/01/28 02:35:52;;;;;;;0.00;0.00;;;;;;;0.25;91.93;101632.81;5010242;28;20423;-74
2023/01/28 02:38:40;;;;;;;0.87;0.30;;;;;;;0.25;92.65;101643.56;5014091;28;20188;-76
2023/01/28 02:41:10;;;;;;;0.00;0.00;;;;;;;0.19;92.26;101639.88;5014619;28;20399;-73
2023/01/28 02:43:44;;;;;;;0.00;0.00;;;;;;;0.21;92.97;101640.50;5014758;28;20467;-74
2023/01/28 02:49:16;;;;;;;0.00;0.00;;;;;;;0.17;93.39;101635.75;5014639;28;20486;-73
2023/01/28 02:52:00;;;;;;;0.00;0.00;;;;;;;0.11;92.68;101632.03;5014354;28;20419;-73
2023/01/28 02:54:25;;;;;;;0.00;0.00;;;;;;;0.08;92.88;101626.28;5014484;28;20430;-71
2023/01/28 02:57:06;;;;;;;0.00;0.00;;;;;;;0.13;92.73;101627.28;5014837;28;20898;-86
2023/01/28 02:59:37;;;;;;;0.00;0.00;;;;;;;0.11;92.48;101628.53;5015924;28;20165;-86
2023/01/28 03:02:07;;;;;;;0.00;0.00;;;;;;;0.17;93.00;101625.84;5014893;28;20600;-86
2023/01/28 03:05:06;;;;;;;0.00;0.00;;;;;;;0.20;92.80;101628.09;5014695;28;20605;-87
2023/01/28 03:07:36;;;;;;;0.00;0.00;;;;;;;0.11;92.14;101631.22;5014195;28;20429;-86
2023/01/28 03:10:06;;;;;;;0.00;0.00;;;;;;;0.17;92.00;101635.75;5014780;28;20414;-78
2023/01/28 03:38:32;;;;;;;0.00;0.00;;;;;;;0.08;93.77;101629.78;5013469;28;20504;-86
2023/01/28 03:41:02;;;;;;;0.00;0.00;;;;;;;0.10;93.55;101625.03;5013005;28;20239;-84
2023/01/28 03:43:29;;;;;;;0.00;0.00;;;;;;;0.35;94.23;101625.13;5013400;28;20335;-86
2023/01/28 03:45:55;;;;;;;0.00;0.00;;;;;;;0.28;93.84;101625.16;5013340;28;20416;-83
2023/01/28 03:48:23;;;;;;;0.00;0.00;;;;;;;0.52;93.45;101615.50;5012741;28;20185;-80
2023/01/28 03:50:49;;;;;;;0.00;0.00;;;;;;;0.48;92.91;101627.75;5012994;28;20185;-82
2023/01/28 03:53:15;;;;;;;0.00;0.00;;;;;;;0.53;92.45;101621.72;5013070;28;20272;-81
2023/01/28 03:55:42;;;;;;;0.00;0.00;;;;;;;0.41;93.13;101621.56;5012929;28;20192;-80
2023/01/28 03:58:11;;;;;;;0.00;0.00;;;;;;;0.52;92.83;101625.44;5013038;28;20180;-81
2023/01/28 04:00:40;;;;;;;0.00;0.00;;;;;;;0.69;93.05;101621.19;5012683;28;20190;-85
2023/01/28 04:03:16;;;;;;;0.00;0.00;;;;;;;0.59;92.81;101627.06;5013060;28;20261;-86
2023/01/28 04:05:45;;;;;;;0.00;0.00;;;;;;;0.77;93.20;101629.03;5012843;28;20235;-85
2023/01/28 04:08:12;;;;;;;0.00;0.00;;;;;;;0.76;93.07;101630.06;5013165;28;20176;-86
2023/01/28 04:10:39;;;;;;;0.00;0.00;;;;;;;0.50;92.61;101628.34;5012612;28;20259;-83
2023/01/28 04:13:05;;;;;;;0.00;0.00;;;;;;;0.50;91.85;101632.91;5012696;28;20260;-84
2023/01/28 04:15:31;;;;;;;0.00;0.00;;;;;;;0.38;91.77;101634.63;5013127;28;20191;-75
2023/01/28 04:17:56;;;;;;;0.00;0.00;;;;;;;0.15;92.41;101646.72;5013228;28;20173;-75
2023/01/28 04:20:21;;;;;;;0.00;0.00;;;;;;;0.17;92.70;101641.13;5012308;28;20177;-73
2023/01/28 04:22:47;;;;;;;0.00;0.00;;;;;;;0.09;92.57;101633.31;5012171;28;20573;-73
2023/01/28 04:25:12;;;;;;;0.00;0.00;;;;;;;0.13;92.52;101643.41;5012455;28;20578;-72
2023/01/28 04:27:37;;;;;;;0.00;0.00;;;;;;;0.08;92.78;101651.28;5011036;28;20180;-72
2023/01/28 04:30:03;;;;;;;0.20;0.20;;;;;;;-0.08;91.84;101643.69;5010889;28;20172;-73
2023/01/28 04:32:28;;;;;;;0.87;0.73;;;;;;;-0.08;91.31;101643.69;5012659;28;20337;-71
2023/01/28 04:34:54;;;;;;;0.00;0.00;;;;;;;-0.11;89.97;101650.31;5007760;28;20185;-72
2023/01/28 04:37:19;;;;;;;0.00;0.00;;;;;;;-0.07;89.33;101642.66;4992554;28;20681;-73
2023/01/28 04:39:44;;;;;;;0.00;0.00;;;;;;;-0.09;89.04;101647.41;4992809;28;20320;-72
2023/01/28 04:42:09;;;;;;;0.00;0.00;;;;;;;0.02;89.45;101656.69;4992460;28;20596;-73
2023/01/28 04:44:35;;;;;;;0.00;0.00;;;;;;;-0.07;89.57;101656.91;4992489;28;20181;-72
2023/01/28 04:47:00;;;;;;;0.00;0.00;;;;;;;-0.08;89.74;101660.63;4992498;28;20185;-84
2023/01/28 04:49:25;;;;;;;0.00;0.00;;;;;;;0.10;89.30;101661.81;4992496;28;20263;-85
2023/01/28 04:51:51;;;;;;;0.00;0.00;;;;;;;0.15;88.71;101662.84;4992069;28;20204;-84
2023/01/28 04:54:16;;;;;;;0.00;0.00;;;;;;;0.02;86.99;101656.69;4992355;28;20177;-85
2023/01/28 04:56:41;;;;;;;0.00;0.00;;;;;;;0.06;86.73;101655.22;4992480;28;20633;-86
2023/01/28 04:59:07;;;;;;;0.00;0.00;;;;;;;-0.01;86.15;101645.31;4992318;28;20535;-84
2023/01/28 05:01:32;;;;;;;0.00;0.00;;;;;;;-0.02;86.43;101665.16;4990965;28;20173;-84
2023/01/28 05:03:58;;;;;;;0.00;0.00;;;;;;;0.00;85.35;101654.22;4992461;28;20721;-86
2023/01/28 05:06:23;;;;;;;0.00;0.00;;;;;;;0.15;85.74;101651.28;4992003;28;20169;-86
2023/01/28 05:08:49;;;;;;;0.00;0.00;;;;;;;0.09;85.41;101647.56;4992341;28;20239;-86
2023/01/28 05:11:14;;;;;;;0.00;0.00;;;;;;;0.00;84.56;101654.22;4991628;28;20204;-87
2023/01/28 05:13:39;;;;;;;0.00;0.00;;;;;;;0.01;84.41;101650.50;4992046;28;20540;-85
2023/01/28 05:16:05;;;;;;;0.00;0.00;;;;;;;-0.04;84.67;101653.78;4991774;28;20228;-84
2023/01/28 05:18:31;;;;;;;0.00;0.00;;;;;;;-0.05;84.49;101660.22;4991989;28;20189;-86
2023/01/28 05:20:56;;;;;;;0.00;0.00;;;;;;;-0.07;83.42;101658.78;4991957;28;20231;-84
2023/01/28 05:23:22;;;;;;;0.00;0.00;;;;;;;-0.07;83.65;101650.72;4990306;28;20304;-84
2023/01/28 05:25:47;;;;;;;0.00;0.00;;;;;;;-0.08;82.90;101655.25;4991748;28;20180;-86
2023/01/28 05:28:13;;;;;;;0.00;0.00;;;;;;;0.03;83.31;101658.34;4991689;28;20173;-85
2023/01/28 05:30:38;;;;;;;0.00;0.00;;;;;;;0.05;83.24;101656.25;4991522;28;20177;-83
2023/01/28 05:33:03;;;;;;;0.00;0.00;;;;;;;-0.06;83.68;101669.31;4991559;28;20169;-85
2023/01/28 05:35:29;;;;;;;0.00;0.00;;;;;;;-0.09;84.84;101667.03;4991554;28;20185;-84
2023/01/28 05:37:54;;;;;;;0.00;0.00;;;;;;;-0.05;84.99;101668.25;4991489;28;20272;-83
2023/01/28 05:40:19;;;;;;;0.00;0.00;;;;;;;0.00;85.53;101670.34;4991279;28;20502;-86
2023/01/28 05:42:45;;;;;;;0.00;0.00;;;;;;;0.00;85.79;101670.34;4991599;28;20205;-86
2023/01/28 05:45:10;;;;;;;0.00;0.00;;;;;;;0.19;86.00;101660.56;4991504;28;20510;-85
2023/01/28 05:47:36;;;;;;;0.00;0.00;;;;;;;0.31;86.04;101666.91;4991392;28;20182;-87
2023/01/28 05:50:02;;;;;;;0.00;0.00;;;;;;;-0.02;84.90;101661.63;4991187;28;20178;-81
2023/01/28 05:52:27;;;;;;;0.00;0.00;;;;;;;-0.09;84.38;101656.31;4991110;28;20564;-85
2023/01/28 05:54:52;;;;;;;0.00;0.00;;;;;;;-0.12;85.25;101645.16;4991519;28;20656;-85
2023/01/28 05:57:18;;;;;;;0.00;0.00;;;;;;;-0.09;84.69;101658.16;4991654;28;20184;-85
2023/01/28 05:59:43;;;;;;;0.00;0.00;;;;;;;0.07;85.60;101659.56;4991234;28;20573;-85
2023/01/28 06:02:08;;;;;;;0.00;0.00;;;;;;;0.14;85.77;101660.34;4990912;28;20232;-86
2023/01/28 06:04:33;;;;;;;0.00;0.00;;;;;;;-0.06;85.71;101655.88;4991122;28;20181;-83
2023/01/28 06:06:59;;;;;;;0.00;0.00;;;;;;;-0.11;85.46;101657.56;4991455;28;20181;-86
2023/01/28 06:09:24;;;;;;;0.00;0.00;;;;;;;-0.11;84.25;101661.06;4991486;28;20540;-85
2023/01/28 06:11:50;;;;;;;0.00;0.00;;;;;;;-0.11;84.70;101655.69;4991054;28;20628;-85
2023/01/28 06:14:15;;;;;;;0.00;0.00;;;;;;;-0.12;83.52;101648.66;4991425;28;20180;-85
2023/01/28 06:16:40;;;;;;;0.00;0.00;;;;;;;-0.08;82.28;101643.69;4991301;28;20668;-84
2023/01/28 06:19:06;;;;;;;0.00;0.00;;;;;;;0.20;82.74;101652.28;4991395;28;20692;-86
2023/01/28 06:21:31;;;;;;;0.00;0.00;;;;;;;0.20;82.93;101665.72;4991047;28;20184;-86
2023/01/28 06:23:56;;;;;;;0.00;0.00;;;;;;;0.02;82.06;101660.22;4991564;28;20228;-85
2023/01/28 06:26:22;;;;;;;0.00;0.00;;;;;;;-0.08;82.07;101667.88;4991565;28;20668;-84
2023/01/28 06:28:47;;;;;;;0.00;0.00;;;;;;;-0.11;82.51;101674.50;4991220;28;20207;-84
2023/01/28 06:31:12;;;;;;;0.00;0.00;;;;;;;-0.02;83.34;101675.91;4991083;28;20444;-83
2023/01/28 06:33:38;;;;;;;0.00;0.00;;;;;;;0.10;83.87;101676.06;4991681;28;20625;-86
2023/01/28 06:36:05;;;;;;;0.00;0.00;;;;;;;0.03;83.43;101672.59;4991225;28;20296;-86
2023/01/28 06:38:30;;;;;;;0.00;0.00;;;;;;;0.03;83.34;101669.09;4991100;28;20190;-85
2023/01/28 06:40:57;;;;;;;0.00;0.00;;;;;;;0.32;83.85;101665.88;4990967;28;20181;-82
2023/01/28 06:43:26;;;;;;;0.00;0.00;;;;;;;0.52;84.47;101669.28;4991069;28;20208;-86
2023/01/28 06:45:55;;;;;;;0.00;0.00;;;;;;;0.62;84.37;101682.28;4991075;28;20184;-86
2023/01/28 06:48:20;;;;;;;0.00;0.00;;;;;;;0.68;84.71;101680.56;4991076;28;20178;-85
2023/01/28 06:50:46;;;;;;;0.00;0.00;;;;;;;0.69;84.96;101679.53;4990672;28;20833;-83
2023/01/28 06:53:12;;;;;;;0.00;0.00;;;;;;;0.81;84.83;101670.56;4991007;28;20380;-86
2023/01/28 06:55:38;;;;;;;0.00;0.00;;;;;;;0.77;84.36;101679.31;4990947;28;20188;-79
2023/01/28 06:58:03;;;;;;;0.00;0.00;;;;;;;0.24;83.17;101672.31;4990985;28;20522;-86
2023/01/28 07:00:28;;;;;;;0.00;0.00;;;;;;;-0.06;83.86;101677.34;4990656;28;20205;-83
2023/01/28 07:02:57;;;;;;;0.00;0.00;;;;;;;-0.01;84.28;101672.16;4990847;28;20212;-83
2023/01/28 07:05:23;;;;;;;0.00;0.00;;;;;;;-0.04;85.27;101664.53;4990901;28;20599;-86
2023/01/28 07:07:48;;;;;;;0.00;0.00;;;;;;;-0.02;85.40;101673.22;4990986;28;20264;-85
2023/01/28 07:10:13;;;;;;;0.00;0.00;;;;;;;0.27;85.40;101681.78;4990794;28;20544;-85
2023/01/28 07:12:39;;;;;;;0.00;0.00;;;;;;;0.42;85.49;101685.03;4990833;28;20643;-81
2023/01/28 07:15:05;;;;;;;0.20;0.20;;;;;;;0.38;85.20;101683.81;4991055;28;20655;-86
2023/01/28 07:17:30;;;;;;;0.10;0.10;;;;;;;0.24;84.38;101679.53;4990705;28;20219;-84
2023/01/28 07:19:55;;;;;;;0.20;0.20;;;;;;;0.17;84.76;101676.91;4990713;28;20540;-86
2023/01/28 07:22:21;;;;;;;0.00;0.00;;;;;;;0.23;84.92;101686.78;4990406;28;20244;-86
2023/01/28 07:24:46;;;;;;;0.00;0.00;;;;;;;0.15;85.29;101678.97;4992859;28;20181;-87
2023/01/28 07:27:11;;;;;;;0.00;0.00;;;;;;;0.22;86.08;101681.63;4994456;28;20209;-86
2023/01/28 07:29:37;;;;;;;0.00;0.00;;;;;;;0.37;86.38;101684.88;4994159;28;20184;-84
2023/01/28 07:32:04;;;;;;;0.10;0.10;;;;;;;0.23;85.43;101677.88;4993965;28;20178;-87
2023/01/28 07:34:29;;;;;;;0.00;0.00;;;;;;;0.00;84.65;101667.66;4993936;28;20177;-83
2023/01/28 07:36:54;;;;;;;0.00;0.00;;;;;;;-0.01;84.70;101677.53;4994346;28;20421;-75
2023/01/28 07:39:20;;;;;;;0.00;0.00;;;;;;;-0.11;84.51;101671.81;4994123;28;20667;-88
2023/01/28 07:41:46;;;;;;;0.00;0.00;;;;;;;-0.22;83.97;101682.38;4993701;28;20208;-87
2023/01/28 07:44:11;;;;;;;0.00;0.00;;;;;;;-0.21;84.64;101678.63;4993724;28;20173;-76
2023/01/28 07:46:37;;;;;;;0.00;0.00;;;;;;;-0.17;84.69;101690.59;4993661;28;20528;-82
2023/01/28 07:49:02;;;;;;;0.00;0.00;;;;;;;-0.14;85.07;101691.03;4993781;28;20177;-77
2023/01/28 07:51:28;;;;;;;0.00;0.00;;;;;;;-0.16;85.23;101687.72;4973952;28;20188;-85
2023/01/28 07:53:53;;;;;;;0.00;0.00;;;;;;;0.02;85.00;101694.31;4974173;28;20859;-84
2023/01/28 07:56:18;;;;;;;0.00;0.00;;;;;;;0.20;85.29;101692.59;4974302;28;20676;-88
2023/01/28 07:58:43;;;;;;;0.00;0.00;;;;;;;0.41;85.22;101693.31;4974421;28;20178;-86
2023/01/28 08:01:09;;;;;;;0.00;0.00;;;;;;;0.21;84.31;101688.84;4974177;28;20178;-81
2023/01/28 08:03:34;;;;;;;0.00;0.00;;;;;;;0.43;84.24;101693.94;4974095;28;20564;-86
2023/01/28 08:06:00;;;;;;;0.00;0.00;;;;;;;0.10;83.46;101691.38;4973991;28;20664;-88
2023/01/28 08:08:26;;;;;;;0.00;0.00;;;;;;;-0.22;83.56;101699.31;4974196;28;20189;-87
2023/01/28 08:10:52;;;;;;;0.00;0.00;;;;;;;-0.30;82.47;101691.44;4973752;28;20264;-87
2023/01/28 08:13:17;;;;;;;0.00;0.00;;;;;;;-0.25;81.37;101688.97;4974097;28;20178;-84
2023/01/28 08:15:44;;;;;;;0.00;0.00;;;;;;;-0.19;80.55;101688.13;4973947;28;20185;-86
2023/01/28 08:18:14;;;;;;;0.00;0.00;;;;;;;0.04;80.29;101690.38;4974029;28;20184;-84
2023/01/28 08:20:40;;;;;;;0.17;0.17;;;;;;;0.03;79.98;101693.25;4973634;28;20436;-88
2023/01/28 08:23:17;;;;;;;0.00;0.00;;;;;;;-0.08;79.69;101698.25;4973846;28;20527;-87
2023/01/28 08:25:44;;;;;;;0.00;0.00;;;;;;;-0.07;80.13;101694.50;4973860;28;20421;-86
2023/01/28 08:28:11;;;;;;;0.00;0.00;;;;;;;0.13;80.70;101707.06;4973754;28;20188;-84
2023/01/28 08:30:37;;;;;;;2.50;2.47;;;;;;;0.20;79.89;101710.56;4973687;28;20810;-89
2023/01/28 08:33:05;;;;;;;0.00;0.00;;;;;;;0.29;79.58;101720.06;4973603;28;21108;-88
2023/01/28 08:35:31;;;;;;;0.00;0.00;;;;;;;0.37;79.21;101716.28;4973675;28;20433;-84
2023/01/28 08:37:59;;;;;;;0.10;0.10;;;;;;;0.38;79.13;101720.63;4973440;28;20418;-87
2023/01/28 08:40:25;;;;;;;0.00;0.00;;;;;;;0.37;78.63;101725.19;4973322;28;20173;-85
2023/01/28 08:42:52;;;;;;;0.00;0.00;;;;;;;0.40;79.33;101732.81;4973109;28;20977;-84
2023/01/28 08:45:21;;;;;;;0.23;0.23;;;;;;;0.49;79.57;101725.34;4973144;28;20184;-88
2023/01/28 08:47:53;;;;;;;0.00;0.00;;;;;;;0.55;78.55;101730.69;4973102;28;20461;-85
2023/01/28 08:50:19;;;;;;;0.00;0.00;;;;;;;0.59;78.31;101733.81;4972794;28;20796;-80
2023/01/28 08:52:46;;;;;;;0.47;0.47;;;;;;;0.66;78.35;101739.97;4973069;28;20174;-80
2023/01/28 08:55:12;;;;;;;0.00;0.00;;;;;;;0.66;78.51;101736.44;4973080;28;20440;-87
2023/01/28 08:57:37;;;;;;;0.00;0.00;;;;;;;0.52;78.48;101739.19;4973260;28;20889;-71
2023/01/28 09:00:04;;;;;;;0.00;0.00;;;;;;;0.47;78.45;101743.56;4972999;28;20224;-77
2023/01/28 09:02:29;;;;;;;0.00;0.00;;;;;;;0.57;78.48;101738.53;4972758;28;20761;-77
2023/01/28 09:04:55;;;;;;;0.00;0.00;;;;;;;0.58;79.00;101746.41;4972723;28;20520;-73
2023/01/28 09:07:20;;;;;;;0.00;0.00;;;;;;;0.51;78.71;101752.84;4972692;28;20410;-76
2023/01/28 09:09:45;;;;;;;0.00;0.00;;;;;;;0.37;78.44;101762.81;4972482;28;20645;-75
2023/01/28 09:12:11;;;;;;;0.00;0.00;;;;;;;0.41;77.99;101766.72;4972723;28;20178;-82
2023/01/28 09:14:36;;;;;;;0.10;0.10;;;;;;;0.51;78.41;101767.13;4982340;28;20181;-76
2023/01/28 09:17:03;;;;;;;0.00;0.00;;;;;;;0.53;77.62;101769.59;4986270;28;20181;-74
2023/01/28 09:19:29;;;;;;;0.00;0.00;;;;;;;0.37;77.12;101765.50;4986737;28;20587;-80
2023/01/28 09:21:54;;;;;;;0.00;0.00;;;;;;;0.40;77.12;101766.94;4974314;28;20477;-74
2023/01/28 09:24:20;;;;;;;0.30;0.30;;;;;;;0.46;77.03;101768.78;4980267;28;20177;-72
2023/01/28 09:26:48;;;;;;;0.00;0.00;;;;;;;0.42;76.84;101765.69;4980146;28;20193;-79
2023/01/28 09:29:13;;;;;;;0.67;0.67;;;;;;;0.37;76.60;101756.63;4972312;28;20189;-72
2023/01/28 09:31:39;;;;;;;0.00;0.00;;;;;;;0.33;76.59;101766.97;4973495;28;20800;-74
2023/01/28 09:34:05;;;;;;;1.13;1.13;;;;;;;0.41;77.31;101784.72;4975376;28;20201;-75
2023/01/28 09:36:31;;;;;;;0.00;0.00;;;;;;;0.36;76.87;101781.84;4970771;28;20996;-73
2023/01/28 09:38:56;;;;;;;0.00;0.00;;;;;;;0.41;77.22;101801.66;4972186;28;20188;-70
2023/01/28 09:41:25;;;;;;;0.13;0.13;;;;;;;0.44;77.93;101803.13;4971980;28;20543;-72
2023/01/28 09:44:28;;;;;;;0.00;0.00;;;;;;;0.53;78.48;101809.91;4972201;28;20625;-70
2023/01/28 09:47:01;;;;;;;0.00;0.00;;;;;;;0.19;78.23;101814.53;4971590;28;20261;-71
2023/01/28 09:49:44;;;;;;;0.33;0.33;;;;;;;0.33;79.31;101812.66;4972073;28;21020;-75
2023/01/28 09:52:16;;;;;;;0.23;0.23;;;;;;;0.34;78.86;101808.94;4971425;28;20638;-73
2023/01/28 09:54:48;;;;;;;0.00;0.00;;;;;;;0.30;79.03;101813.09;4972152;28;20468;-70
2023/01/28 09:57:23;;;;;;;0.00;0.00;;;;;;;0.28;79.04;101812.44;4972024;28;20197;-77
2023/01/28 09:59:49;;;;;;;0.20;0.20;;;;;;;0.33;79.07;101809.16;4972169;28;20428;-70
2023/01/28 10:02:36;;;;;;;0.00;0.00;;;;;;;0.25;78.66;101820.94;4971691;28;20457;-72
2023/01/28 10:05:24;;;;;;;0.33;0.33;;;;;;;0.22;78.57;101805.22;4971915;28;20185;-70
2023/01/28 10:08:11;;;;;;;0.00;0.00;;;;;;;0.23;79.47;101815.78;4972025;28;20426;-72
2023/01/28 10:10:37;;;;;;;0.00;0.00;;;;;;;0.20;78.74;101812.69;4971547;28;20889;-70
2023/01/28 10:13:36;;;;;;;0.00;0.00;;;;;;;0.23;78.95;101818.47;4971729;28;20440;-71
2023/01/28 10:16:17;;;;;;;0.00;0.00;;;;;;;0.22;80.01;101813.28;4970576;28;20272;-73
2023/01/28 10:19:03;;;;;;;0.00;0.00;;;;;;;0.21;80.30;101811.66;4971790;28;20417;-71
2023/01/28 10:21:37;;;;;;;0.00;0.00;;;;;;;0.18;79.98;101812.91;4971645;28;20528;-70
2023/01/28 10:24:14;;;;;;;0.00;0.00;;;;;;;0.27;80.43;101800.88;4971665;28;20797;-71
2023/01/28 10:26:41;;;;;;;0.00;0.00;;;;;;;0.36;80.40;101804.19;4971799;28;20417;-71
2023/01/28 10:29:17;;;;;;;0.00;0.00;;;;;;;0.33;79.87;101806.47;4971459;28;20665;-70
2023/01/28 10:32:04;;;;;;;0.00;0.00;;;;;;;0.30;79.90;101799.66;4971308;28;20421;-71
2023/01/28 10:34:30;;;;;;;0.30;0.30;;;;;;;0.27;79.18;101789.28;4970127;28;20456;-74
2023/01/28 10:36:56;;;;;;;0.30;0.30;;;;;;;0.22;79.73;101779.19;4971396;28;20430;-79
2023/01/28 10:39:24;;;;;;;0.00;0.00;;;;;;;0.16;80.22;101784.59;4971436;28;20178;-74
2023/01/28 10:41:49;;;;;;;0.60;0.50;;;;;;;0.18;79.93;101782.50;4971123;28;20428;-78
2023/01/28 10:44:29;;;;;;;0.10;0.10;;;;;;;0.12;79.57;101775.28;4971259;28;20480;-80
2023/01/28 10:46:58;;;;;;;0.43;0.43;;;;;;;0.11;79.98;101782.50;4971160;28;20243;-76
2023/01/28 10:49:27;;;;;;;0.20;0.20;;;;;;;0.12;80.73;101783.34;4971445;28;20504;-76
2023/01/28 10:51:52;;;;;;;0.20;0.20;;;;;;;0.08;80.99;101776.72;4971006;28;20831;-79
2023/01/28 10:54:26;;;;;;;0.10;0.10;;;;;;;0.10;81.57;101783.53;4971228;28;20751;-80
2023/01/28 10:56:59;;;;;;;0.00;0.00;;;;;;;0.09;81.90;101781.91;4970690;28;20217;-76
2023/01/28 10:59:40;;;;;;;0.10;0.10;;;;;;;0.08;81.99;101787.47;4974715;28;20684;-79
2023/01/28 11:02:23;;;;;;;0.00;0.00;;;;;;;0.12;82.17;101797.59;4975471;28;20433;-78
2023/01/28 11:05:00;;;;;;;0.17;0.17;;;;;;;0.12;82.00;101802.13;4975026;28;20417;-80
2023/01/28 11:07:26;;;;;;;0.53;0.53;;;;;;;0.11;81.97;101795.94;4974852;28;20421;-79
2023/01/28 11:09:51;;;;;;;0.40;0.40;;;;;;;0.17;81.84;101805.03;4974812;28;20421;-80
2023/01/28 11:12:26;;;;;;;0.50;0.50;;;;;;;0.20;81.97;101808.13;4974936;28;20277;-79
2023/01/28 11:15:16;;;;;;;0.00;0.00;;;;;;;0.19;80.81;101797.59;4974745;28;20213;-78
2023/01/28 11:17:49;;;;;;;0.00;0.00;;;;;;;0.16;80.27;101793.47;4999051;28;20420;-70
2023/01/28 11:20:23;;;;;;;1.43;0.50;;;;;;;0.15;80.55;101789.13;5013388;28;20420;-79
2023/01/28 11:22:49;;;;;;;0.30;0.30;;;;;;;0.18;80.52;101790.56;5013419;28;20664;-80
2023/01/28 11:25:18;;;;;;;0.00;0.00;;;;;;;0.27;81.29;101797.34;5014121;28;20423;-78
2023/01/28 11:27:48;;;;;;;0.00;0.00;;;;;;;0.33;81.84;101809.16;5013322;28;20422;-79
2023/01/28 11:30:27;;;;;;;6.63;0.37;;;;;;;0.41;81.25;101796.28;5013233;28;20410;-79
2023/01/28 11:32:58;;;;;;;0.07;0.07;;;;;;;0.27;80.13;101795.50;5013363;28;20515;-80
2023/01/28 11:35:27;;;;;;;0.00;0.00;;;;;;;0.45;80.19;101802.09;5013473;28;20419;-78
2023/01/28 11:37:53;;;;;;;0.07;0.07;;;;;;;0.51;80.07;101796.69;5013416;28;20203;-80
2023/01/28 11:40:21;;;;;;;0.07;0.07;;;;;;;0.46;79.58;101787.63;5013008;28;20514;-80
2023/01/28 11:42:49;;;;;;;1.97;1.13;;;;;;;0.44;79.70;101789.69;5013140;28;20204;-81
2023/01/28 11:45:17;;;;;;;0.93;0.80;;;;;;;0.37;79.48;101787.00;5013135;28;20233;-80
2023/01/28 11:48:28;;;;;;;0.50;0.50;;;;;;;0.35;79.66;101780.19;5012984;28;20211;-81
2023/01/28 11:51:06;;;;;;;0.00;0.00;;;;;;;0.37;79.45;101781.63;4990135;28;20199;-80
2023/01/28 11:54:05;;;;;;;0.00;0.00;;;;;;;0.46;79.57;101776.88;5013089;28;20506;-79
2023/01/28 11:56:49;;;;;;;0.00;0.00;;;;;;;0.43;79.13;101770.03;5013387;28;20489;-79
2023/01/28 11:59:31;;;;;;;0.10;0.10;;;;;;;0.39;78.30;101766.13;5013009;28;20419;-79
2023/01/28 12:02:24;;;;;;;2.93;2.73;;;;;;;0.35;78.61;101756.81;5012416;28;20424;-75
2023/01/28 12:05:04;;;;;;;0.37;0.37;;;;;;;0.36;77.97;101750.41;5013270;28;20491;-78
2023/01/28 12:07:53;;;;;;;0.33;0.33;;;;;;;0.31;77.98;101747.53;5012410;28;20411;-77
2023/01/28 12:10:37;;;;;;;1.00;1.00;;;;;;;0.31;78.06;101744.03;5012347;28;21030;-79